< Typhoon 200814 2008 Season Typhoon 200816 >
Typhoon 200815 (JANGMI)
General InformationTrack Information on Google MapsDetailed Wind InformationAccess Analytics MapList of All Images || NewsDisaster Info.WeblogTrackbackTyphoon FrontTyphoon ImaginationResourceGoogle EarthGE AnimationAtom FeedGeoJSON
Detalied Best Track (Time Zone = UTC)
Year Month Day Hour Lat. Long. Pressure (hPa) Wind (kt) Class Image Chart
2008 9 24 00 11.8 137.9 1004 0 2 Image Chart
2008 9 24 06 12.2 137.3 1002 0 2 Image Chart
2008 9 24 12 12.6 136.5 998 35 3 Image Chart
2008 9 24 18 13.3 135.1 992 45 3 Image Chart
2008 9 25 00 13.8 134.1 985 55 4 Image Chart
2008 9 25 06 14.6 132.5 975 65 5 Image Chart
2008 9 25 12 14.7 131.2 970 70 5 Image Chart
2008 9 25 18 15.1 130.3 965 75 5 Image Chart
2008 9 26 00 16.0 129.9 960 80 5 Image Chart
2008 9 26 06 16.9 128.9 955 85 5 Image Chart
2008 9 26 12 17.7 128.0 940 95 5 Image Chart
2008 9 26 18 18.6 127.2 930 100 5 Image Chart
2008 9 27 00 19.6 126.5 920 105 5 Image Chart
2008 9 27 06 20.7 125.6 910 110 5 Image Chart
2008 9 27 12 21.3 124.4 905 115 5 Image Chart
2008 9 27 15 21.6 123.9 905 115 5 Image Chart
2008 9 27 18 21.7 123.7 905 115 5 Image Chart
2008 9 27 21 22.1 123.5 905 115 5 Image Chart
2008 9 28 00 22.8 123.2 910 110 5 Image Chart
2008 9 28 03 23.4 122.7 915 105 5 Image Chart
2008 9 28 06 23.9 122.4 925 100 5 Image Chart
2008 9 28 09 24.2 121.3 935 95 5 Image Chart
2008 9 28 12 24.2 121.0 950 85 5 Image Chart
2008 9 28 15 24.4 121.0 960 75 5 Image Chart
2008 9 28 18 24.7 121.2 970 65 5 Image Chart
2008 9 29 00 25.7 121.2 985 50 4 Image Chart
2008 9 29 06 26.4 121.5 990 50 4 Image Chart
2008 9 29 12 26.9 121.9 992 45 3 Image Chart
2008 9 29 18 27.6 123.2 992 45 3 Image Chart
2008 9 30 00 28.7 124.3 994 45 3 Image Chart
2008 9 30 06 29.4 125.3 994 40 3 Image Chart
2008 9 30 12 29.7 126.7 996 35 3 Image Chart
2008 9 30 15 29.7 127.3 996 35 3 Image Chart
2008 9 30 18 29.8 128.3 996 35 3 Image Chart
2008 9 30 21 29.8 129.4 998 35 3 Image Chart
2008 10 1 00 29.9 130.4 1002 0 6 Image Chart
2008 10 1 06 29.6 132.8 1002 0 6 Image Chart
2008 10 1 12 29.4 135.1 1002 0 6 Image Chart
2008 10 1 18 29.2 136.7 1004 0 6 Image Chart
2008 10 2 00 29.1 138.7 1004 0 6 Image Chart
2008 10 2 06 28.8 139.6 1004 0 6 Image Chart
2008 10 2 12 28.4 140.3 1006 0 6 Image Chart
2008 10 2 18 27.9 140.4 1006 0 6 Image Chart
2008 10 3 00 27.4 140.5 1008 0 6 Image Chart
2008 10 3 06 26.8 140.6 1006 0 6 Image Chart
2008 10 3 12 26.5 140.6 1008 0 6 Image Chart
2008 10 3 18 26.2 140.6 1006 0 6 Image Chart
2008 10 4 00 26.0 140.7 1008 0 6 Image Chart
2008 10 4 06 25.7 140.7 1006 0 6 Image Chart
2008 10 4 12 25.2 140.9 1008 0 6 Image Chart
2008 10 4 18 25.1 141.1 1008 0 6 Image Chart
2008 10 5 00 25.1 141.1 1010 0 6 Image Chart
Japan Meteorological Agency Best Track Data | Correction Date : 2008-11-07
< Typhoon 200814 2008 Season Typhoon 200816 >

Help